Time;durP1;ratioP1;P1;durP2;ratioP2;P2;SDS_P1;SDS_P2;PMS_P1;PMS_P2;Temp;Humidity;BMP_temperature;BMP_pressure;BME280_temperature;BME280_humidity;BME280_pressure;Samples;Min_cycle;Max_cycle;Signal;HPM_P1;HPM_P2
2023/04/06 00:00:24;;;;;;;18.08;6.57;;;;;;;4.96;65.98;100776.84;6224049;23;20012;-84
2023/04/06 00:02:49;;;;;;;14.00;6.75;;;;;;;4.91;66.81;100778.97;6182309;23;20019;-83
2023/04/06 00:05:20;;;;;;;14.07;6.63;;;;;;;5.04;66.12;100782.31;6236909;23;20051;-84
2023/04/06 00:07:49;;;;;;;13.60;5.97;;;;;;;4.85;67.15;100771.56;6188801;23;20294;-82
2023/04/06 00:10:31;;;;;;;20.52;6.95;;;;;;;4.86;66.56;100778.50;6213880;23;20016;-82
2023/04/06 00:12:59;;;;;;;11.30;6.28;;;;;;;4.86;67.36;100778.50;6168148;23;20017;-82
2023/04/06 00:15:27;;;;;;;10.90;6.00;;;;;;;4.88;67.16;100784.47;6215961;23;20062;-82
2023/04/06 00:18:07;;;;;;;13.32;5.97;;;;;;;4.86;66.42;100778.50;6191927;23;20009;-83
2023/04/06 00:20:32;;;;;;;11.27;6.35;;;;;;;4.89;65.31;100778.28;6215563;23;20009;-81
2023/04/06 00:22:59;;;;;;;12.75;5.40;;;;;;;4.74;64.33;100782.09;6232803;23;20055;-84
2023/04/06 00:25:26;;;;;;;15.07;6.22;;;;;;;4.76;64.05;100781.03;6241005;23;20013;-82
2023/04/06 00:27:53;;;;;;;9.13;5.88;;;;;;;4.88;63.18;100776.59;6241145;23;20019;-79
2023/04/06 00:30:58;;;;;;;7.72;5.53;;;;;;;4.67;62.01;100779.91;6208994;23;20000;-85
2023/04/06 00:33:29;;;;;;;9.82;4.85;;;;;;;4.83;59.28;100784.00;6231899;22;20611;-89
2023/04/06 00:35:54;;;;;;;8.63;5.00;;;;;;;4.79;59.33;100782.56;6186020;23;20044;-86
2023/04/06 00:38:21;;;;;;;9.30;4.80;;;;;;;4.83;57.92;100784.00;6161657;23;20109;-86
2023/04/06 00:40:47;;;;;;;10.73;4.80;;;;;;;4.69;58.83;100783.28;6191070;23;20009;-87
2023/04/06 00:43:13;;;;;;;14.25;5.30;;;;;;;4.57;59.29;100778.94;6164079;23;20403;-85
2023/04/06 00:45:40;;;;;;;11.25;5.00;;;;;;;4.54;59.53;100778.38;6164116;23;20173;-84
2023/04/06 00:48:06;;;;;;;8.32;4.65;;;;;;;4.70;59.35;100768.38;6163714;23;20155;-87
2023/04/06 00:50:32;;;;;;;7.50;4.85;;;;;;;4.44;60.84;100770.34;6160621;23;20028;-86
2023/04/06 00:52:59;;;;;;;8.38;5.13;;;;;;;4.30;61.94;100773.19;6186112;23;20000;-88
2023/04/06 00:55:29;;;;;;;9.18;4.78;;;;;;;4.12;62.90;100769.31;6184701;23;20013;-88
2023/04/06 00:57:58;;;;;;;8.63;4.90;;;;;;;4.35;61.42;100770.22;6160477;23;20445;-86
2023/04/06 01:00:25;;;;;;;11.10;4.70;;;;;;;4.25;62.61;100758.75;6160392;23;20077;-85
2023/04/06 01:02:55;;;;;;;10.32;5.40;;;;;;;4.46;61.56;100765.00;6160490;23;20005;-86
2023/04/06 01:05:26;;;;;;;7.47;4.72;;;;;;;4.26;62.23;100758.66;6185042;23;20013;-87
2023/04/06 01:07:56;;;;;;;7.10;4.80;;;;;;;4.18;62.95;100755.75;6159620;23;20021;-86
2023/04/06 01:10:28;;;;;;;9.80;4.88;;;;;;;4.28;61.95;100761.13;6160189;23;20020;-87
2023/04/06 01:13:14;;;;;;;8.38;4.97;;;;;;;4.27;61.83;100757.69;6185687;23;20063;-86
2023/04/06 01:15:53;;;;;;;11.05;4.95;;;;;;;4.11;62.43;100759.78;6159497;23;20344;-86
2023/04/06 01:18:29;;;;;;;12.00;4.93;;;;;;;4.03;62.42;100763.00;6159345;23;20063;-86
2023/04/06 01:21:15;;;;;;;9.38;4.72;;;;;;;3.83;63.56;100752.31;6159623;23;20046;-86
2023/04/06 01:23:48;;;;;;;6.63;4.20;;;;;;;3.92;63.81;100759.47;6189993;23;20036;-86
2023/04/06 01:26:19;;;;;;;5.75;3.88;;;;;;;3.69;63.71;100753.31;6191387;23;20009;-85
2023/04/06 01:28:48;;;;;;;10.00;4.35;;;;;;;3.55;64.56;100751.72;6160696;23;20079;-86
2023/04/06 01:31:26;;;;;;;7.13;4.28;;;;;;;3.45;64.90;100750.69;6187411;23;20001;-87
2023/04/06 01:33:52;;;;;;;7.45;4.78;;;;;;;3.88;63.32;100742.34;6160061;23;20037;-85
2023/04/06 01:36:21;;;;;;;8.30;4.43;;;;;;;3.59;65.02;100747.91;6160511;23;20045;-87
2023/04/06 01:38:53;;;;;;;9.55;4.40;;;;;;;3.75;64.35;100746.78;6160893;23;20043;-85
2023/04/06 01:41:26;;;;;;;9.80;4.97;;;;;;;3.57;65.93;100744.59;6161060;23;20102;-85
2023/04/06 01:43:54;;;;;;;8.70;5.07;;;;;;;3.68;66.70;100742.97;6159867;23;20020;-88
2023/04/06 01:46:22;;;;;;;7.28;4.80;;;;;;;3.84;65.13;100740.88;6187007;23;20012;-85
2023/04/06 01:48:48;;;;;;;8.85;4.35;;;;;;;3.85;64.38;100747.78;6161230;23;20380;-85
2023/04/06 01:51:29;;;;;;;9.07;4.50;;;;;;;3.65;65.36;100739.59;6162397;23;20009;-85
2023/04/06 01:53:58;;;;;;;8.13;4.88;;;;;;;3.59;64.97;100745.31;6163106;23;20100;-84
2023/04/06 01:56:34;;;;;;;8.10;4.28;;;;;;;3.51;66.15;100745.00;6163199;23;20333;-86
2023/04/06 01:59:19;;;;;;;6.60;3.90;;;;;;;3.78;64.47;100751.81;6161839;23;20040;-85
2023/04/06 02:01:45;;;;;;;8.60;4.43;;;;;;;3.88;62.78;100747.59;6161029;23;20009;-87
2023/04/06 02:04:10;;;;;;;9.30;4.93;;;;;;;3.73;63.54;100748.69;6161551;23;20335;-87
2023/04/06 02:06:36;;;;;;;7.40;4.43;;;;;;;3.91;62.79;100742.09;6162835;23;20099;-86
2023/04/06 02:09:04;;;;;;;8.23;4.63;;;;;;;3.89;63.32;100751.84;6162885;23;20009;-86
2023/04/06 02:11:30;;;;;;;8.13;3.72;;;;;;;3.86;62.48;100749.47;6188667;23;20013;-87
2023/04/06 02:13:56;;;;;;;6.20;3.60;;;;;;;3.89;61.42;100749.22;6194788;23;20009;-87
2023/04/06 02:16:25;;;;;;;8.13;3.38;;;;;;;3.75;58.89;100757.28;6181003;23;20075;-87
2023/04/06 02:18:50;;;;;;;6.15;3.47;;;;;;;3.56;58.65;100748.16;6208007;23;20068;-86
2023/04/06 02:21:19;;;;;;;6.97;3.00;;;;;;;3.39;59.51;100753.78;6210420;23;20053;-88
2023/04/06 02:23:47;;;;;;;5.80;3.15;;;;;;;3.46;59.13;100762.88;6211696;23;20019;-86
2023/04/06 02:26:13;;;;;;;5.15;3.20;;;;;;;3.50;58.94;100763.47;6208503;23;20007;-87
2023/04/06 02:28:38;;;;;;;5.32;3.10;;;;;;;3.56;57.85;100756.00;6182806;23;20021;-87
2023/04/06 02:31:04;;;;;;;7.15;3.50;;;;;;;3.62;57.75;100758.19;6209642;23;20024;-87
2023/04/06 02:33:30;;;;;;;5.30;3.33;;;;;;;3.26;57.60;100765.22;6182814;23;20025;-87
2023/04/06 02:35:55;;;;;;;7.25;3.25;;;;;;;3.21;57.52;100762.97;6183189;23;20398;-88
2023/04/06 02:38:22;;;;;;;5.60;2.90;;;;;;;3.12;57.85;100763.59;6184730;23;20028;-88
2023/04/06 02:40:47;;;;;;;9.18;3.28;;;;;;;2.98;58.38;100772.41;6212084;23;19997;-87
2023/04/06 02:43:20;;;;;;;;;;;;;;;2.89;58.03;100774.84;6209593;23;20024;-88
2023/04/06 02:45:47;;;;;;;6.97;4.15;;;;;;;2.78;57.74;100775.63;6184932;23;19911;-88
2023/04/06 02:48:13;;;;;;;5.65;3.10;;;;;;;2.62;57.87;100777.59;6210954;23;20001;-87
2023/04/06 02:50:39;;;;;;;6.10;3.15;;;;;;;2.59;57.91;100770.78;6185533;23;20024;-88
2023/04/06 02:53:14;;;;;;;7.28;3.55;;;;;;;2.51;58.01;100769.66;6185510;23;20019;-87
2023/04/06 02:55:40;;;;;;;5.90;3.53;;;;;;;2.51;58.05;100773.13;6184884;23;20076;-87
2023/04/06 02:58:05;;;;;;;4.07;3.00;;;;;;;2.50;58.47;100770.59;6185986;23;20036;-85
2023/04/06 03:00:40;;;;;;;11.55;3.63;;;;;;;2.62;58.21;100758.47;6186179;23;20009;-87
2023/04/06 03:03:07;;;;;;;4.55;3.55;;;;;;;2.78;57.89;100766.91;6211754;23;20028;-86
2023/04/06 03:05:33;;;;;;;7.18;3.75;;;;;;;2.84;57.55;100774.34;6197779;23;20009;-86
2023/04/06 03:07:59;;;;;;;5.45;3.28;;;;;;;2.90;57.46;100763.44;6190493;23;20088;-85
2023/04/06 03:10:38;;;;;;;7.78;3.40;;;;;;;2.72;58.08;100769.97;6165351;23;20020;-88
2023/04/06 03:20:39;;;;;;;6.90;3.22;;;;;;;2.93;58.46;100758.00;6193838;23;20165;-86
2023/04/06 03:23:06;;;;;;;6.18;3.50;;;;;;;3.09;57.84;100763.81;6165561;23;20413;-86
2023/04/06 03:25:39;;;;;;;6.22;2.90;;;;;;;3.15;58.08;100763.38;6163784;23;20005;-88
2023/04/06 03:28:07;;;;;;;8.23;3.40;;;;;;;3.01;58.97;100767.00;6162865;23;20039;-85
2023/04/06 03:30:38;;;;;;;9.60;3.95;;;;;;;2.73;60.61;100762.00;6186895;23;20039;-86
2023/04/06 03:33:04;;;;;;;5.63;3.38;;;;;;;2.44;62.69;100756.16;6162561;23;20104;-86
2023/04/06 03:35:36;;;;;;;8.95;3.55;;;;;;;2.46;63.03;100759.50;6189732;23;20015;-86
2023/04/06 03:38:03;;;;;;;8.35;3.60;;;;;;;2.25;63.44;100753.13;6185633;23;20037;-85
2023/04/06 03:40:29;;;;;;;6.60;3.17;;;;;;;2.22;63.88;100762.97;6188400;23;20020;-84
2023/04/06 03:42:55;;;;;;;5.03;3.42;;;;;;;2.20;63.90;100752.59;6162235;23;20005;-85
2023/04/06 03:45:21;;;;;;;6.50;3.10;;;;;;;2.35;63.68;100754.19;6162469;23;20013;-86
2023/04/06 03:47:49;;;;;;;7.85;3.10;;;;;;;2.43;64.23;100754.47;6187418;23;20016;-86
2023/04/06 03:50:17;;;;;;;10.55;3.67;;;;;;;2.54;64.13;100751.13;6138828;23;20460;-87
2023/04/06 03:52:43;;;;;;;11.23;4.07;;;;;;;2.44;64.66;100756.16;6163216;23;20021;-89
2023/04/06 03:55:09;;;;;;;8.88;3.63;;;;;;;2.34;64.99;100743.81;6190006;23;20464;-86
2023/04/06 03:57:35;;;;;;;8.05;3.65;;;;;;;2.37;64.52;100744.44;6189378;23;20005;-87
2023/04/06 04:00:05;;;;;;;7.45;3.50;;;;;;;2.43;64.44;100754.47;6163806;23;20474;-88
2023/04/06 04:02:38;;;;;;;6.57;3.30;;;;;;;2.43;64.73;100749.25;6189028;23;20052;-87
2023/04/06 04:05:04;;;;;;;7.05;3.58;;;;;;;2.55;64.19;100751.00;6188011;23;20013;-87
2023/04/06 04:07:30;;;;;;;5.25;3.55;;;;;;;2.54;65.50;100756.38;6162836;23;20037;-87
2023/04/06 04:09:56;;;;;;;5.65;3.30;;;;;;;2.55;65.90;100748.41;6163123;23;20020;-87
2023/04/06 04:12:21;;;;;;;8.00;3.50;;;;;;;2.81;65.37;100756.25;6189999;23;20005;-87
2023/04/06 04:14:47;;;;;;;6.72;3.47;;;;;;;2.74;65.13;100758.44;6190915;23;20013;-87
2023/04/06 04:17:12;;;;;;;7.30;3.50;;;;;;;2.94;64.31;100760.50;6188019;23;20009;-88
2023/04/06 04:19:38;;;;;;;8.80;3.70;;;;;;;2.71;62.95;100760.44;6163855;23;20424;-87
2023/04/06 04:22:07;;;;;;;5.45;3.35;;;;;;;2.81;61.73;100754.47;6192276;23;20009;-89
2023/04/06 04:24:36;;;;;;;5.80;2.95;;;;;;;2.98;60.01;100753.28;6167036;23;20005;-88
2023/04/06 04:27:02;;;;;;;5.68;3.03;;;;;;;2.85;59.37;100760.31;6165638;23;20433;-86
2023/04/06 04:29:30;;;;;;;5.70;3.35;;;;;;;2.94;59.27;100760.50;6193080;23;20013;-86
2023/04/06 04:32:01;;;;;;;8.10;4.07;;;;;;;2.95;59.14;100758.75;6191184;23;20440;-87
2023/04/06 04:34:29;;;;;;;7.53;3.45;;;;;;;2.84;57.97;100758.63;6172232;23;20020;-87
2023/04/06 04:36:55;;;;;;;8.38;3.78;;;;;;;2.31;59.12;100764.94;6167538;23;20001;-88
2023/04/06 04:39:32;;;;;;;9.27;3.80;;;;;;;2.15;59.89;100764.31;6169917;23;20016;-86
2023/04/06 04:42:02;;;;;;;6.18;3.85;;;;;;;2.05;59.52;100774.53;6168669;23;20032;-88
2023/04/06 04:44:30;;;;;;;9.60;4.68;;;;;;;1.93;60.29;100775.31;6170033;23;20064;-89
2023/04/06 04:46:56;;;;;;;6.55;4.05;;;;;;;1.90;59.68;100772.91;6171212;23;20013;-87
2023/04/06 04:49:30;;;;;;;10.18;4.00;;;;;;;1.77;59.44;100774.66;6204232;23;20009;-88
2023/04/06 04:51:56;;;;;;;6.72;3.45;;;;;;;1.98;58.98;100774.09;6206162;23;20013;-88
2023/04/06 04:54:30;;;;;;;5.65;3.47;;;;;;;2.01;58.12;100779.13;6178037;23;20040;-86
2023/04/06 04:56:56;;;;;;;7.13;3.15;;;;;;;2.24;58.20;100787.22;6172594;23;20478;-89
2023/04/06 04:59:49;;;;;;;10.18;3.80;;;;;;;2.24;57.31;100780.22;6189401;23;20015;-89
2023/04/06 05:02:23;;;;;;;12.07;3.60;;;;;;;2.22;57.52;100782.06;6170970;23;20016;-91
2023/04/06 05:05:15;;;;;;;7.63;3.60;;;;;;;2.63;55.78;100778.44;6166888;23;20032;-90
2023/04/06 05:07:42;;;;;;;11.23;3.67;;;;;;;2.79;55.50;100786.91;6200757;23;20061;-91
2023/04/06 05:10:16;;;;;;;15.50;4.47;;;;;;;2.88;55.11;100786.28;6204751;23;20005;-89
2023/04/06 05:12:52;;;;;;;15.05;4.15;;;;;;;3.08;54.05;100788.34;6204694;23;20017;-89
2023/04/06 05:15:17;;;;;;;8.30;3.50;;;;;;;3.51;53.65;100792.16;6178436;23;20348;-90
2023/04/06 05:17:47;;;;;;;8.90;3.90;;;;;;;3.36;53.29;100788.03;6174005;23;20009;-91
2023/04/06 05:20:17;;;;;;;13.50;4.97;;;;;;;4.24;50.30;100796.44;6174804;23;20051;-90
2023/04/06 05:22:47;;;;;;;16.70;5.20;;;;;;;4.22;48.68;100798.31;6197842;23;20013;-89
2023/04/06 05:25:15;;;;;;;10.68;4.35;;;;;;;4.52;48.96;100804.72;6172821;23;20017;-88
2023/04/06 05:27:41;;;;;;;9.40;3.40;;;;;;;3.54;50.40;100807.69;6172128;23;20419;-89
2023/04/06 05:30:17;;;;;;;10.57;3.20;;;;;;;3.43;50.40;100815.47;6149240;23;20124;-90
2023/04/06 05:32:46;;;;;;;7.55;2.97;;;;;;;3.53;50.23;100815.66;6191314;23;20021;-90
2023/04/06 05:35:12;;;;;;;5.60;2.50;;;;;;;4.00;50.05;100818.28;6167701;23;20088;-89
2023/04/06 05:37:39;;;;;;;5.55;2.70;;;;;;;4.89;48.22;100825.53;6165524;23;20396;-88
2023/04/06 05:40:06;;;;;;;8.85;2.90;;;;;;;5.17;45.78;100819.81;6162668;23;20016;-91
2023/04/06 05:42:42;;;;;;;4.65;2.72;;;;;;;6.18;44.29;100823.88;6163569;23;20013;-90
2023/04/06 05:45:10;;;;;;;7.53;3.40;;;;;;;6.02;43.89;100823.47;6165237;23;20013;-90
2023/04/06 05:47:39;;;;;;;6.53;3.08;;;;;;;6.50;42.54;100835.22;6191579;23;20177;-89
2023/04/06 05:50:16;;;;;;;10.55;3.45;;;;;;;6.61;42.81;100832.50;6163526;23;20444;-90
2023/04/06 05:52:45;;;;;;;13.13;4.10;;;;;;;5.94;44.28;100832.00;6190311;23;20072;-90
2023/04/06 05:55:16;;;;;;;8.52;3.60;;;;;;;7.12;41.97;100829.88;6140327;23;20024;-88
2023/04/06 05:57:46;;;;;;;8.35;3.90;;;;;;;7.43;41.62;100830.66;6160636;23;20015;-88
2023/04/06 06:00:15;;;;;;;12.20;3.92;;;;;;;7.92;40.45;100834.25;6185506;23;20021;-89
2023/04/06 06:02:53;;;;;;;7.18;3.60;;;;;;;9.14;37.88;100838.69;6161421;23;20044;-88
2023/04/06 06:05:22;;;;;;;12.48;3.92;;;;;;;8.81;38.94;100836.59;6162907;23;20068;-92
2023/04/06 06:07:49;;;;;;;12.60;3.60;;;;;;;7.66;40.56;100829.47;6166524;23;20041;-91
2023/04/06 06:10:15;;;;;;;11.07;4.47;;;;;;;8.10;39.52;100837.88;6191850;23;20013;-91
2023/04/06 06:12:43;;;;;;;18.63;4.38;;;;;;;9.16;38.81;100843.84;6189457;23;20502;-92
2023/04/06 06:15:10;;;;;;;8.25;3.75;;;;;;;8.61;38.80;100849.00;6161659;23;20013;-87
2023/04/06 06:17:41;;;;;;;9.93;4.10;;;;;;;8.20;39.32;100843.97;6162869;23;20024;-87
2023/04/06 06:20:07;;;;;;;9.57;4.00;;;;;;;9.02;39.17;100857.50;6169827;23;20091;-88
2023/04/06 06:22:33;;;;;;;14.18;3.95;;;;;;;9.69;36.88;100858.06;6171895;23;20017;-90
2023/04/06 06:24:58;;;;;;;11.32;4.22;;;;;;;10.59;35.30;100860.63;6168420;23;20009;-89
2023/04/06 06:27:24;;;;;;;10.38;4.60;;;;;;;10.35;34.87;100852.47;6188661;23;20020;-89
2023/04/06 06:29:49;;;;;;;20.05;4.57;;;;;;;10.60;34.58;100853.50;6218887;23;20075;-87
2023/04/06 06:32:16;;;;;;;17.30;4.32;;;;;;;10.51;33.97;100849.09;6197622;23;20024;-88
2023/04/06 06:34:42;;;;;;;20.88;4.40;;;;;;;10.53;33.87;100850.63;6199414;23;20084;-91
2023/04/06 06:37:08;;;;;;;8.90;3.67;;;;;;;11.69;32.73;100840.34;6195734;23;20020;-92
2023/04/06 06:39:36;;;;;;;11.23;3.80;;;;;;;11.55;32.24;100846.25;6192201;23;20019;-89
2023/04/06 06:42:02;;;;;;;14.82;3.78;;;;;;;11.50;32.48;100845.06;6191167;23;20013;-86
2023/04/06 06:44:47;;;;;;;8.57;3.80;;;;;;;10.98;33.50;100844.31;6190357;23;20351;-91
2023/04/06 06:47:13;;;;;;;8.88;3.67;;;;;;;10.45;33.82;100842.59;6195387;23;20016;-90
2023/04/06 06:49:38;;;;;;;11.63;3.53;;;;;;;10.68;33.61;100842.94;6219322;23;20053;-89
2023/04/06 06:52:04;;;;;;;7.57;3.50;;;;;;;11.49;33.52;100846.91;6220833;23;20032;-90
2023/04/06 06:54:30;;;;;;;14.13;3.47;;;;;;;11.57;32.67;100856.69;6193783;23;20012;-88
2023/04/06 06:56:56;;;;;;;14.15;3.90;;;;;;;11.74;32.04;100859.28;6194868;23;20755;-88
2023/04/06 06:59:21;;;;;;;9.18;3.65;;;;;;;12.04;32.13;100860.53;6169380;23;20015;-87
2023/04/06 07:01:50;;;;;;;13.25;4.53;;;;;;;11.68;32.49;100859.06;6222089;23;20070;-90
2023/04/06 07:04:15;;;;;;;12.77;4.05;;;;;;;12.15;31.73;100864.69;6220120;23;20432;-90
2023/04/06 07:06:41;;;;;;;11.88;3.72;;;;;;;12.68;30.33;100867.72;6223042;23;20067;-90
2023/04/06 07:09:06;;;;;;;7.95;3.20;;;;;;;11.99;31.75;100862.00;6230679;23;20013;-90
2023/04/06 07:11:33;;;;;;;7.65;3.35;;;;;;;12.38;30.66;100855.09;6206036;23;20009;-89
2023/04/06 07:13:59;;;;;;;12.00;3.53;;;;;;;12.45;30.75;100864.06;6231089;23;20016;-89
2023/04/06 07:16:28;;;;;;;12.10;3.55;;;;;;;12.24;31.38;100877.00;6198903;23;20035;-89
2023/04/06 07:18:54;;;;;;;10.40;4.00;;;;;;;11.98;32.26;100878.94;6199325;23;20018;-88
2023/04/06 07:21:20;;;;;;;7.70;3.72;;;;;;;12.18;32.89;100877.66;6182910;23;20020;-89
2023/04/06 07:23:47;;;;;;;6.28;3.45;;;;;;;12.58;32.87;100880.34;6205822;22;20012;-88
2023/04/06 07:26:14;;;;;;;9.90;4.57;;;;;;;12.43;33.38;100874.00;6205218;23;20020;-93
2023/04/06 07:28:41;;;;;;;13.20;4.10;;;;;;;13.14;32.50;100878.66;6226418;23;20023;-89
2023/04/06 07:31:07;;;;;;;18.05;4.20;;;;;;;13.57;32.49;100880.84;6197573;23;20399;-90
2023/04/06 07:33:34;;;;;;;14.32;4.28;;;;;;;13.19;32.70;100881.66;6178369;23;20013;-90
2023/04/06 07:36:00;;;;;;;15.65;3.88;;;;;;;13.60;31.78;100885.81;6204333;23;20048;-88
2023/04/06 07:38:26;;;;;;;13.07;4.05;;;;;;;13.71;32.03;100893.44;6205977;23;20012;-89
2023/04/06 07:40:52;;;;;;;13.75;4.70;;;;;;;12.88;33.00;100887.66;6183913;23;20020;-91
2023/04/06 07:43:18;;;;;;;10.18;4.68;;;;;;;12.48;33.78;100878.84;6203376;23;20044;-89
2023/04/06 07:45:44;;;;;;;11.55;4.68;;;;;;;13.58;33.23;100889.66;6197541;23;20080;-89
2023/04/06 07:48:16;;;;;;;8.60;4.10;;;;;;;14.13;31.84;100889.53;6197399;23;20008;-88
2023/04/06 07:50:47;;;;;;;10.70;4.75;;;;;;;13.68;31.53;100895.63;6224053;23;20047;-88
2023/04/06 07:53:14;;;;;;;8.55;4.80;;;;;;;13.52;32.03;100895.69;6201221;23;20013;-86
2023/04/06 07:55:40;;;;;;;14.25;5.38;;;;;;;13.51;32.45;100904.66;6225429;23;20012;-89
2023/04/06 07:58:05;;;;;;;20.00;4.72;;;;;;;14.63;30.32;100897.06;6223524;23;20420;-86
2023/04/06 08:00:31;;;;;;;13.15;4.32;;;;;;;15.29;30.15;100893.59;6227534;23;20031;-87
2023/04/06 08:02:57;;;;;;;13.02;3.95;;;;;;;14.97;29.81;100898.28;6194173;23;20008;-87
2023/04/06 08:05:22;;;;;;;10.38;3.92;;;;;;;14.86;30.27;100890.69;6218968;23;20491;-86
2023/04/06 08:07:51;;;;;;;12.02;4.32;;;;;;;15.20;30.39;100895.53;6219688;23;20201;-88
2023/04/06 08:10:16;;;;;;;10.32;4.10;;;;;;;15.34;29.58;100897.41;6194195;23;20059;-87
2023/04/06 08:12:44;;;;;;;17.45;4.40;;;;;;;16.42;28.81;100887.63;6218542;23;20008;-86
2023/04/06 08:15:13;;;;;;;8.57;4.43;;;;;;;16.58;27.75;100899.09;6216625;23;20436;-86
2023/04/06 08:17:39;;;;;;;11.55;4.28;;;;;;;15.99;28.54;100902.78;6191109;23;20016;-87
2023/04/06 08:20:05;;;;;;;10.73;4.53;;;;;;;15.62;28.37;100894.91;6219404;23;20459;-88
2023/04/06 08:22:31;;;;;;;10.18;4.38;;;;;;;15.99;28.00;100896.59;6217537;23;20498;-89
2023/04/06 08:24:56;;;;;;;11.23;4.15;;;;;;;16.41;27.51;100902.00;6217449;23;20009;-88
2023/04/06 08:27:25;;;;;;;15.88;3.97;;;;;;;16.74;27.61;100901.50;6218881;23;20027;-88
2023/04/06 08:29:51;;;;;;;12.07;5.13;;;;;;;16.67;27.97;100904.13;6220656;23;20020;-92
2023/04/06 08:32:17;;;;;;;10.68;4.10;;;;;;;16.44;28.47;100898.94;6191597;23;20447;-87
2023/04/06 08:34:42;;;;;;;7.93;3.95;;;;;;;17.16;26.92;100892.59;6191144;23;20064;-89
2023/04/06 08:37:08;;;;;;;7.57;4.50;;;;;;;17.16;26.17;100893.41;6196434;23;20013;-89
2023/04/06 08:39:34;;;;;;;8.75;3.90;;;;;;;17.28;26.79;100897.19;6222223;23;20428;-88
2023/04/06 08:42:02;;;;;;;14.20;4.50;;;;;;;17.41;25.73;100893.75;6219682;23;20012;-88
2023/04/06 08:44:32;;;;;;;8.82;3.83;;;;;;;17.94;24.77;100894.88;6187375;23;20432;-87
2023/04/06 08:47:00;;;;;;;7.75;3.95;;;;;;;18.13;24.29;100899.47;6193860;23;20060;-88
2023/04/06 08:49:26;;;;;;;7.75;3.75;;;;;;;18.10;24.08;100901.75;6220660;23;20070;-87
2023/04/06 08:51:51;;;;;;;7.88;4.32;;;;;;;18.40;24.17;100889.63;6220240;23;20015;-88
2023/04/06 08:54:20;;;;;;;11.73;4.50;;;;;;;17.83;24.62;100893.59;6219433;23;20000;-90
2023/04/06 08:56:47;;;;;;;8.75;3.97;;;;;;;16.91;24.87;100881.47;6192058;23;20005;-91
2023/04/06 08:59:13;;;;;;;7.03;4.28;;;;;;;16.83;25.68;100881.63;6187904;23;20016;-85
2023/04/06 09:01:43;;;;;;;9.82;4.75;;;;;;;17.80;24.85;100885.94;6205804;23;20008;-85
2023/04/06 09:04:11;;;;;;;12.70;4.53;;;;;;;17.41;25.25;100885.72;6182587;23;20012;-87
2023/04/06 09:06:37;;;;;;;10.30;4.05;;;;;;;16.75;25.96;100877.25;6213682;23;20058;-85
2023/04/06 09:09:03;;;;;;;8.18;4.65;;;;;;;17.73;24.40;100878.94;6211812;23;20013;-87
2023/04/06 09:11:28;;;;;;;16.83;4.57;;;;;;;17.43;24.45;100881.00;6211874;23;20005;-87
2023/04/06 09:13:56;;;;;;;10.75;4.55;;;;;;;17.25;24.92;100880.69;6212238;23;20088;-86
2023/04/06 09:16:25;;;;;;;10.55;4.50;;;;;;;16.14;26.13;100869.84;6213898;23;20027;-89
2023/04/06 09:18:50;;;;;;;9.57;5.35;;;;;;;16.76;25.37;100865.53;6213092;23;20021;-84
2023/04/06 09:21:18;;;;;;;10.45;4.47;;;;;;;16.47;25.10;100871.00;6186188;23;20012;-81
2023/04/06 09:23:44;;;;;;;9.20;4.38;;;;;;;17.34;24.69;100872.28;6212090;23;20008;-80
2023/04/06 09:26:17;;;;;;;9.57;4.22;;;;;;;17.42;24.10;100863.28;6211836;23;20020;-83
2023/04/06 09:28:45;;;;;;;10.85;4.47;;;;;;;17.82;23.65;100870.50;6211689;23;20096;-85
2023/04/06 09:31:11;;;;;;;8.23;4.78;;;;;;;18.80;23.38;100864.50;6212518;23;20570;-85
2023/04/06 09:33:39;;;;;;;9.63;4.82;;;;;;;18.56;23.41;100870.47;6212376;23;20019;-86
2023/04/06 09:36:06;;;;;;;7.68;4.53;;;;;;;17.95;23.24;100859.81;6212112;23;20019;-87
2023/04/06 09:38:31;;;;;;;13.77;4.55;;;;;;;18.05;23.54;100860.25;6216690;23;20020;-87
2023/04/06 09:40:57;;;;;;;10.07;4.88;;;;;;;17.42;24.32;100855.22;6212683;23;20023;-87
2023/04/06 09:43:26;;;;;;;13.73;4.80;;;;;;;17.37;24.88;100854.97;6218116;23;20424;-92
2023/04/06 09:45:55;;;;;;;7.45;4.60;;;;;;;16.55;24.99;100844.13;6189418;23;20005;-87
2023/04/06 09:48:21;;;;;;;11.32;4.57;;;;;;;17.25;24.65;100845.84;6187192;23;20013;-86
2023/04/06 09:50:53;;;;;;;8.38;4.50;;;;;;;17.98;23.17;100845.19;6214747;23;20005;-88
2023/04/06 09:53:20;;;;;;;8.93;4.03;;;;;;;18.36;23.28;100835.53;6162792;23;20456;-88
2023/04/06 09:55:49;;;;;;;7.18;3.90;;;;;;;18.55;22.13;100832.09;6214824;23;20360;-89
2023/04/06 09:58:25;;;;;;;9.82;4.13;;;;;;;19.64;21.34;100835.00;6165544;23;20325;-86
2023/04/06 10:00:54;;;;;;;10.90;4.47;;;;;;;19.12;21.32;100837.81;6187784;23;20039;-86
2023/04/06 10:03:22;;;;;;;9.63;4.70;;;;;;;18.90;22.29;100831.84;6162826;23;20013;-88
2023/04/06 10:06:04;;;;;;;6.63;3.92;;;;;;;18.85;21.84;100826.28;6161029;23;20044;-89
2023/04/06 10:08:33;;;;;;;7.60;4.17;;;;;;;19.00;21.93;100830.38;6187346;23;20058;-88
2023/04/06 10:11:00;;;;;;;6.30;3.85;;;;;;;19.81;20.79;100830.78;6213040;23;20019;-89
2023/04/06 10:13:26;;;;;;;9.10;4.00;;;;;;;19.48;20.58;100835.47;6185600;23;20036;-89
2023/04/06 10:15:52;;;;;;;7.53;4.00;;;;;;;19.24;20.28;100830.75;6164400;23;20017;-86
2023/04/06 10:18:20;;;;;;;7.22;4.35;;;;;;;19.24;20.10;100825.38;6224166;23;20020;-88
2023/04/06 10:24:41;;;;;;;12.75;4.18;;;;;;;18.90;20.75;100816.56;6185271;23;20053;-89
2023/04/06 10:27:12;;;;;;;9.52;3.97;;;;;;;19.19;20.55;100819.81;6222477;23;20055;-88
2023/04/06 10:29:54;;;;;;;10.32;4.30;;;;;;;18.69;20.71;100819.50;6228257;23;20008;-88
2023/04/06 10:32:20;;;;;;;13.20;4.57;;;;;;;18.45;20.98;100806.66;6206775;23;20568;-86
2023/04/06 10:35:08;;;;;;;10.73;4.65;;;;;;;18.62;20.74;100815.97;6206469;23;20024;-88
2023/04/06 10:37:50;;;;;;;9.32;4.05;;;;;;;20.01;19.62;100819.91;6218629;23;20023;-89
2023/04/06 10:40:26;;;;;;;7.15;4.63;;;;;;;20.07;19.71;100816.34;6189577;23;20451;-85
2023/04/06 10:43:15;;;;;;;8.98;4.93;;;;;;;20.11;20.26;100804.94;6189864;23;20032;-88
2023/04/06 10:45:42;;;;;;;10.20;4.80;;;;;;;20.29;19.84;100811.44;6129172;23;20105;-85
2023/04/06 10:48:18;;;;;;;10.73;4.72;;;;;;;20.73;20.34;100802.38;6154097;23;20018;-87
2023/04/06 10:50:46;;;;;;;9.93;5.20;;;;;;;20.22;20.07;100799.91;6153558;23;20021;-84
2023/04/06 10:53:11;;;;;;;10.20;5.18;;;;;;;21.38;19.55;100795.50;6153688;23;20088;-88
2023/04/06 10:55:41;;;;;;;9.52;4.82;;;;;;;20.92;19.28;100798.66;6152942;23;20429;-87
2023/04/06 10:58:07;;;;;;;7.68;4.75;;;;;;;21.32;19.18;100797.22;6157378;23;20425;-83
2023/04/06 11:00:33;;;;;;;9.55;5.15;;;;;;;20.58;19.53;100792.78;6152658;23;20119;-83
2023/04/06 11:03:00;;;;;;;11.82;5.60;;;;;;;20.25;19.96;100792.19;6153773;23;20018;-83
2023/04/06 11:05:25;;;;;;;8.77;5.03;;;;;;;21.01;19.36;100783.88;6152369;23;20044;-82
2023/04/06 11:07:51;;;;;;;7.63;4.85;;;;;;;20.55;19.81;100784.31;6152250;23;20025;-84
2023/04/06 11:10:22;;;;;;;9.50;4.88;;;;;;;21.03;19.52;100781.78;6153335;23;20024;-88
2023/04/06 11:12:55;;;;;;;10.85;5.50;;;;;;;20.86;19.24;100781.53;6153421;23;20017;-86
2023/04/06 11:15:21;;;;;;;11.55;5.55;;;;;;;21.62;18.87;100781.09;6153161;23;20016;-86
2023/04/06 11:17:49;;;;;;;9.32;5.20;;;;;;;22.10;18.48;100779.19;6153049;23;20017;-86
2023/04/06 11:20:19;;;;;;;7.75;5.10;;;;;;;21.92;18.43;100767.63;6158439;23;20020;-89
2023/04/06 11:22:52;;;;;;;15.30;6.45;;;;;;;20.42;19.46;100762.88;6178664;23;20023;-83
2023/04/06 11:25:18;;;;;;;7.75;5.70;;;;;;;20.87;19.29;100750.88;6226875;23;20071;-89
2023/04/06 11:27:44;;;;;;;8.80;5.28;;;;;;;21.50;19.00;100755.94;6233461;22;20012;-91
2023/04/06 11:30:10;;;;;;;13.32;5.82;;;;;;;20.30;21.43;100743.13;6226949;22;20016;-89
2023/04/06 11:32:44;;;;;;;8.65;5.72;;;;;;;20.26;20.09;100741.88;6166551;23;20008;-87
2023/04/06 11:35:24;;;;;;;9.13;5.97;;;;;;;20.71;19.36;100740.69;6214586;23;20083;-88
2023/04/06 11:37:50;;;;;;;9.45;5.63;;;;;;;21.00;19.29;100734.53;6215056;23;20009;-89
2023/04/06 11:40:21;;;;;;;9.02;5.47;;;;;;;21.21;19.34;100738.69;6216258;23;20013;-86
2023/04/06 11:42:57;;;;;;;10.35;6.15;;;;;;;21.44;18.63;100735.28;6216833;23;20388;-88
2023/04/06 11:45:23;;;;;;;8.98;5.60;;;;;;;21.99;18.70;100734.09;6188607;23;20066;-85